Wetterdaten: Woche 16.09.13 - 22.09.13 (KW38)
Datum Zeit Temp. A. Feuchte A. Luftdruck Regen Wind Richtung Taupunkt Windchill Windben
16.09.2013 00:00 14,1 C 81 % 1006,6 hPa 0,0 l/m 0,0 km/h N 10,9 C 14,1 C 0,0 km/h
16.09.2013 01:00 13,9 C 82 % 1006,3 hPa 0,0 l/m 0,0 km/h N 10,8 C 13,9 C 0,0 km/h
16.09.2013 02:00 13,5 C 82 % 1006,1 hPa 0,0 l/m 0,0 km/h N 10,4 C 13,5 C 0,0 km/h
16.09.2013 03:00 13,4 C 81 % 1005,8 hPa 0,0 l/m 0,0 km/h N 10,2 C 13,4 C 0,0 km/h
16.09.2013 04:00 13,4 C 80 % 1005,6 hPa 0,0 l/m 0,0 km/h N 10,0 C 13,4 C 0,0 km/h
16.09.2013 05:00 16,0 C 80 % 1005,3 hPa 0,0 l/m 4,6 km/h N 12,5 C 15,6 C 17,3 km/h
16.09.2013 06:00 16,6 C 82 % 1005,3 hPa 0,0 l/m 4,6 km/h N 13,5 C 16,6 C 18,5 km/h
16.09.2013 07:00 17,1 C 79 % 1005,7 hPa 0,0 l/m 9,5 km/h N 13,4 C 15,7 C 21,7 km/h
16.09.2013 08:00 17,3 C 79 % 1006,3 hPa 0,0 l/m 6,7 km/h N 13,6 C 16,9 C 18,9 km/h
16.09.2013 09:00 17,6 C 80 % 1006,7 hPa 0,0 l/m 4,6 km/h N 14,1 C 17,6 C 17,3 km/h
16.09.2013 10:00 17,6 C 80 % 1006,9 hPa 0,0 l/m 3,6 km/h N 14,0 C 17,6 C 11,7 km/h
16.09.2013 11:00 19,6 C 71 % 1006,2 hPa 0,0 l/m 4,3 km/h N 14,1 C 19,6 C 14,5 km/h
16.09.2013 12:00 20,0 C 65 % 1005,8 hPa 0,0 l/m 4,2 km/h N 13,1 C 20,0 C 16,9 km/h
16.09.2013 13:00 20,2 C 62 % 1005,7 hPa 0,0 l/m 6,4 km/h N 12,7 C 20,1 C 18,1 km/h
16.09.2013 14:00 20,4 C 62 % 1005,0 hPa 0,0 l/m 7,0 km/h N 12,7 C 20,0 C 18,9 km/h
16.09.2013 15:00 20,0 C 63 % 1004,2 hPa 0,0 l/m 5,1 km/h N 12,8 C 20,0 C 14,1 km/h
16.09.2013 16:00 19,8 C 62 % 1003,6 hPa 0,0 l/m 3,1 km/h N 12,3 C 19,8 C 10,9 km/h
16.09.2013 17:00 19,3 C 62 % 1003,2 hPa 0,0 l/m 1,1 km/h N 11,9 C 19,3 C 5,2 km/h
16.09.2013 18:00 18,8 C 66 % 1002,7 hPa 0,0 l/m 0,0 km/h N 12,3 C 18,8 C 0,4 km/h
16.09.2013 19:00 18,2 C 72 % 1002,3 hPa 0,5 l/m 0,6 km/h N 13,0 C 18,2 C 5,6 km/h
16.09.2013 20:00 16,4 C 80 % 1002,5 hPa 3,6 l/m 0,3 km/h N 12,8 C 16,4 C 4,4 km/h
16.09.2013 21:00 15,0 C 83 % 1002,1 hPa 9,6 l/m 1,7 km/h N 12,0 C 15,0 C 8,9 km/h
16.09.2013 22:00 14,3 C 81 % 1001,8 hPa 14,0 l/m 1,8 km/h N 11,0 C 14,3 C 9,2 km/h
16.09.2013 23:00 14,0 C 79 % 1001,0 hPa 8,1 l/m 0,9 km/h N 10,4 C 14,0 C 5,6 km/h
17.09.2013 00:00 13,8 C 79 % 1000,5 hPa 5,7 l/m 0,4 km/h N 10,1 C 13,8 C 4,8 km/h
17.09.2013 01:00 13,6 C 78 % 999,8 hPa 7,8 l/m 0,3 km/h N 9,8 C 13,6 C 3,6 km/h
17.09.2013 02:00 13,6 C 77 % 999,5 hPa 3,1 l/m 0,3 km/h N 9,6 C 13,6 C 3,2 km/h
17.09.2013 03:00 13,4 C 77 % 998,8 hPa 1,6 l/m 0,0 km/h N 9,5 C 13,4 C 0,8 km/h
17.09.2013 04:00 13,2 C 77 % 998,9 hPa 1,8 l/m 0,1 km/h N 9,3 C 13,2 C 1,2 km/h
17.09.2013 05:00 12,2 C 80 % 999,0 hPa 2,1 l/m 11,9 km/h N 8,9 C 9,0 C 37,4 km/h
17.09.2013 06:00 11,8 C 82 % 999,4 hPa 0,0 l/m 16,1 km/h N 8,8 C 6,9 C 41,5 km/h
17.09.2013 07:00 11,4 C 81 % 1000,8 hPa 0,0 l/m 16,8 km/h N 8,1 C 6,1 C 45,1 km/h
17.09.2013 08:00 11,3 C 80 % 1001,0 hPa 0,0 l/m 16,1 km/h N 7,9 C 6,3 C 34,2 km/h
17.09.2013 09:00 11,3 C 80 % 1001,8 hPa 0,0 l/m 14,5 km/h N 7,9 C 6,9 C 32,6 km/h
17.09.2013 10:00 11,4 C 78 % 1002,6 hPa 0,0 l/m 13,9 km/h N 7,6 C 7,3 C 31,4 km/h
17.09.2013 11:00 11,4 C 76 % 1002,6 hPa 0,0 l/m 15,5 km/h N 7,3 C 6,6 C 27,4 km/h
17.09.2013 12:00 10,9 C 75 % 1004,1 hPa 0,0 l/m 11,3 km/h N 6,7 C 8,0 C 25,8 km/h
17.09.2013 13:00 10,7 C 78 % 1004,3 hPa 0,0 l/m 10,0 km/h N 7,0 C 8,4 C 22,5 km/h
17.09.2013 14:00 10,9 C 78 % 1004,7 hPa 0,5 l/m 12,9 km/h N 7,2 C 7,2 C 28,6 km/h
17.09.2013 15:00 10,2 C 80 % 1004,8 hPa 0,3 l/m 10,0 km/h N 7,0 C 7,9 C 25,0 km/h
17.09.2013 16:00 10,7 C 79 % 1004,7 hPa 0,3 l/m 8,1 km/h N 7,3 C 9,5 C 21,7 km/h
17.09.2013 17:00 11,6 C 77 % 1004,9 hPa 0,0 l/m 7,8 km/h N 7,8 C 10,8 C 20,9 km/h
17.09.2013 18:00 11,2 C 76 % 1005,4 hPa 0,0 l/m 8,3 km/h N 7,1 C 10,0 C 24,9 km/h
17.09.2013 19:00 10,7 C 77 % 1006,0 hPa 0,0 l/m 10,1 km/h N 6,8 C 8,3 C 28,2 km/h
17.09.2013 20:00 10,0 C 77 % 1006,3 hPa 0,0 l/m 8,4 km/h N 6,2 C 8,6 C 22,9 km/h
17.09.2013 21:00 10,1 C 77 % 1006,7 hPa 0,0 l/m 6,8 km/h N 6,1 C 9,4 C 21,7 km/h
17.09.2013 22:00 10,1 C 76 % 1006,9 hPa 0,0 l/m 6,7 km/h N 6,0 C 9,6 C 20,1 km/h
17.09.2013 23:00 10,1 C 73 % 1006,8 hPa 0,0 l/m 7,5 km/h N 5,5 C 9,3 C 23,7 km/h
18.09.2013 00:00 9,9 C 74 % 1006,6 hPa 0,0 l/m 6,1 km/h N 5,4 C 9,8 C 19,3 km/h
18.09.2013 01:00 10,1 C 73 % 1006,3 hPa 0,0 l/m 4,1 km/h N 5,5 C 10,1 C 15,3 km/h
18.09.2013 02:00 9,9 C 75 % 1005,8 hPa 0,0 l/m 0,4 km/h N 5,6 C 9,9 C 5,2 km/h
18.09.2013 03:00 8,9 C 78 % 1005,2 hPa 0,0 l/m 0,1 km/h N 5,2 C 8,9 C 1,2 km/h
18.09.2013 04:00 8,4 C 81 % 1004,5 hPa 0,0 l/m 0,1 km/h N 5,3 C 8,4 C 1,2 km/h
18.09.2013 05:00 7,5 C 82 % 1003,9 hPa 0,0 l/m 0,2 km/h N 4,7 C 7,5 C 3,2 km/h
18.09.2013 06:00 6,6 C 84 % 1003,7 hPa 0,0 l/m 0,0 km/h N 4,0 C 6,6 C 0,4 km/h
18.09.2013 07:00 7,2 C 84 % 1003,3 hPa 0,0 l/m 0,0 km/h N 4,6 C 7,2 C 0,0 km/h
18.09.2013 08:00 8,5 C 83 % 1002,7 hPa 0,0 l/m 0,0 km/h N 5,8 C 8,5 C 0,8 km/h
18.09.2013 09:00 9,3 C 84 % 1002,6 hPa 0,3 l/m 0,0 km/h N 6,7 C 9,3 C 1,2 km/h
18.09.2013 10:00 10,4 C 84 % 1002,1 hPa 0,0 l/m 0,3 km/h N 7,8 C 10,4 C 3,6 km/h
18.09.2013 11:00 11,6 C 84 % 1001,7 hPa 0,5 l/m 0,9 km/h N 8,9 C 11,6 C 4,4 km/h
18.09.2013 12:00 12,7 C 82 % 1000,9 hPa 0,0 l/m 3,9 km/h N 9,7 C 12,7 C 11,7 km/h
18.09.2013 13:00 13,4 C 82 % 1000,5 hPa 0,0 l/m 4,6 km/h N 10,4 C 13,4 C 15,3 km/h
18.09.2013 14:00 14,2 C 83 % 999,9 hPa 0,3 l/m 4,5 km/h N 11,3 C 14,2 C 11,3 km/h
18.09.2013 15:00 14,8 C 83 % 999,5 hPa 0,0 l/m 2,7 km/h N 12,0 C 14,8 C 8,1 km/h
18.09.2013 16:00 16,1 C 83 % 999,4 hPa 0,3 l/m 0,2 km/h N 13,2 C 16,1 C 2,8 km/h
18.09.2013 17:00 16,2 C 82 % 999,6 hPa 0,5 l/m 0,1 km/h N 13,1 C 16,2 C 2,0 km/h
18.09.2013 18:00 15,2 C 83 % 999,2 hPa 0,0 l/m 0,5 km/h N 12,4 C 15,2 C 4,4 km/h
18.09.2013 19:00 14,5 C 84 % 999,3 hPa 0,3 l/m 0,1 km/h N 11,7 C 14,5 C 3,6 km/h
18.09.2013 20:00 14,0 C 84 % 999,3 hPa 0,0 l/m 0,2 km/h N 11,3 C 14,0 C 2,8 km/h
18.09.2013 21:00 14,2 C 84 % 999,6 hPa 0,3 l/m 1,7 km/h N 11,5 C 14,2 C 8,4 km/h
18.09.2013 22:00 14,1 C 82 % 1000,6 hPa 0,5 l/m 7,0 km/h N 11,1 C 13,3 C 21,7 km/h
18.09.2013 23:00 13,5 C 83 % 1001,5 hPa 0,3 l/m 0,1 km/h N 10,7 C 13,5 C 2,4 km/h
19.09.2013 00:00 12,7 C 84 % 1002,0 hPa 0,3 l/m 0,3 km/h N 10,0 C 12,7 C 4,0 km/h
19.09.2013 01:00 12,8 C 84 % 1002,1 hPa 0,0 l/m 1,1 km/h N 10,1 C 12,8 C 8,4 km/h
19.09.2013 02:00 12,9 C 84 % 1002,4 hPa 0,0 l/m 3,7 km/h N 10,3 C 12,9 C 13,3 km/h
19.09.2013 03:00 13,3 C 82 % 1002,4 hPa 0,0 l/m 10,1 km/h N 10,3 C 11,3 C 29,4 km/h
19.09.2013 04:00 12,9 C 82 % 1003,0 hPa 0,8 l/m 11,3 km/h N 9,8 C 10,1 C 27,0 km/h
19.09.2013 05:00 12,2 C 84 % 1004,4 hPa 0,8 l/m 6,7 km/h N 9,6 C 11,8 C 18,9 km/h
19.09.2013 06:00 11,8 C 84 % 1005,6 hPa 0,0 l/m 7,2 km/h N 9,1 C 10,9 C 20,1 km/h
19.09.2013 07:00 11,1 C 83 % 1007,5 hPa 0,0 l/m 4,4 km/h N 8,3 C 11,0 C 14,1 km/h
19.09.2013 08:00 11,1 C 81 % 1008,5 hPa 0,0 l/m 7,0 km/h N 7,8 C 10,4 C 21,3 km/h
19.09.2013 09:00 12,3 C 75 % 1008,8 hPa 0,0 l/m 10,5 km/h N 8,0 C 9,9 C 27,4 km/h
19.09.2013 10:00 13,6 C 67 % 1009,3 hPa 0,0 l/m 12,4 km/h N 7,5 C 10,6 C 28,6 km/h
19.09.2013 11:00 14,5 C 64 % 1010,0 hPa 0,0 l/m 14,7 km/h N 7,8 C 10,7 C 31,4 km/h
19.09.2013 12:00 15,5 C 62 % 1009,9 hPa 0,0 l/m 12,2 km/h N 8,2 C 12,9 C 28,6 km/h
19.09.2013 13:00 16,1 C 61 % 1010,1 hPa 0,0 l/m 11,4 km/h N 8,5 C 13,7 C 27,0 km/h
19.09.2013 14:00 15,3 C 60 % 1010,4 hPa 0,0 l/m 9,9 km/h N 7,5 C 13,5 C 25,8 km/h
19.09.2013 15:00 13,8 C 72 % 1011,0 hPa 0,3 l/m 4,0 km/h N 8,9 C 13,8 C 16,1 km/h
19.09.2013 16:00 12,2 C 80 % 1011,7 hPa 0,3 l/m 6,9 km/h N 8,7 C 11,7 C 20,5 km/h
19.09.2013 17:00 12,5 C 77 % 1012,1 hPa 0,0 l/m 5,7 km/h N 8,6 C 12,2 C 20,5 km/h
19.09.2013 18:00 11,9 C 76 % 1012,7 hPa 0,3 l/m 7,6 km/h N 7,9 C 11,1 C 23,3 km/h
19.09.2013 19:00 11,6 C 78 % 1013,1 hPa 0,0 l/m 6,3 km/h N 7,9 C 11,2 C 16,9 km/h
19.09.2013 20:00 11,8 C 78 % 1013,9 hPa 0,0 l/m 6,7 km/h N 8,0 C 11,0 C 19,3 km/h
19.09.2013 21:00 12,0 C 77 % 1014,4 hPa 0,0 l/m 6,4 km/h N 8,1 C 11,9 C 19,3 km/h
19.09.2013 22:00 11,6 C 77 % 1014,5 hPa 0,0 l/m 5,6 km/h N 7,6 C 11,6 C 16,5 km/h
19.09.2013 23:00 12,0 C 75 % 1014,7 hPa 0,0 l/m 5,1 km/h N 7,6 C 12,0 C 17,7 km/h
20.09.2013 00:00 12,3 C 73 % 1014,8 hPa 0,0 l/m 5,8 km/h N 7,5 C 12,1 C 16,9 km/h
20.09.2013 01:00 12,4 C 71 % 1014,9 hPa 0,0 l/m 4,9 km/h N 7,2 C 12,4 C 16,1 km/h
20.09.2013 02:00 12,2 C 74 % 1015,0 hPa 0,0 l/m 2,8 km/h N 7,7 C 12,2 C 12,5 km/h
20.09.2013 03:00 12,1 C 75 % 1014,9 hPa 0,3 l/m 2,3 km/h N 7,8 C 12,1 C 8,9 km/h
20.09.2013 04:00 12,2 C 74 % 1014,8 hPa 0,0 l/m 3,1 km/h N 7,7 C 12,2 C 9,7 km/h
20.09.2013 05:00 12,4 C 72 % 1014,8 hPa 0,0 l/m 2,4 km/h N 7,4 C 12,4 C 8,8 km/h
20.09.2013 06:00 12,1 C 74 % 1015,0 hPa 0,0 l/m 0,3 km/h N 7,5 C 12,1 C 2,4 km/h
20.09.2013 07:00 11,6 C 78 % 1015,3 hPa 0,0 l/m 0,0 km/h N 8,0 C 11,6 C 0,4 km/h
20.09.2013 08:00 11,6 C 80 % 1015,6 hPa 0,0 l/m 0,0 km/h N 8,3 C 11,6 C 0,4 km/h
20.09.2013 09:00 12,3 C 80 % 1015,6 hPa 0,0 l/m 0,2 km/h N 9,0 C 12,3 C 2,0 km/h
20.09.2013 10:00 15,0 C 71 % 1015,3 hPa 0,0 l/m 2,5 km/h N 9,7 C 15,0 C 9,3 km/h
20.09.2013 11:00 16,3 C 64 % 1015,2 hPa 0,0 l/m 2,1 km/h N 9,5 C 16,3 C 11,3 km/h
20.09.2013 12:00 16,6 C 61 % 1014,9 hPa 0,0 l/m 6,9 km/h N 9,0 C 16,1 C 19,7 km/h
20.09.2013 13:00 16,9 C 62 % 1014,9 hPa 0,0 l/m 4,9 km/h N 9,5 C 16,9 C 18,1 km/h
20.09.2013 14:00 16,9 C 65 % 1014,9 hPa 0,0 l/m 5,9 km/h N 10,2 C 16,8 C 20,1 km/h
20.09.2013 15:00 15,6 C 72 % 1015,2 hPa 0,0 l/m 7,7 km/h N 10,7 C 14,9 C 22,1 km/h
20.09.2013 16:00 15,1 C 76 % 1015,4 hPa 0,0 l/m 8,8 km/h N 10,9 C 13,8 C 23,7 km/h
20.09.2013 17:00 14,6 C 79 % 1015,7 hPa 0,0 l/m 6,3 km/h N 10,9 C 14,2 C 20,9 km/h
20.09.2013 18:00 14,3 C 80 % 1016,2 hPa 0,0 l/m 4,1 km/h N 10,8 C 14,3 C 15,7 km/h
20.09.2013 19:00 14,1 C 80 % 1016,6 hPa 0,0 l/m 4,8 km/h N 10,6 C 14,0 C 16,5 km/h
20.09.2013 20:00 14,5 C 77 % 1017,2 hPa 0,0 l/m 8,8 km/h N 10,5 C 13,1 C 24,1 km/h
20.09.2013 21:00 14,6 C 77 % 1017,6 hPa 0,0 l/m 7,1 km/h N 10,6 C 14,2 C 21,3 km/h
20.09.2013 22:00 14,5 C 77 % 1017,7 hPa 0,0 l/m 6,0 km/h N 10,5 C 14,5 C 19,7 km/h
20.09.2013 23:00 14,7 C 75 % 1017,9 hPa 0,0 l/m 8,2 km/h N 10,2 C 13,7 C 22,9 km/h
21.09.2013 00:00 14,8 C 73 % 1018,1 hPa 0,0 l/m 9,4 km/h N 10,0 C 13,1 C 22,9 km/h
21.09.2013 01:00 14,5 C 73 % 1018,4 hPa 0,0 l/m 7,1 km/h N 9,7 C 14,1 C 21,3 km/h
21.09.2013 02:00 14,5 C 74 % 1018,8 hPa 0,0 l/m 7,4 km/h N 9,9 C 13,9 C 18,9 km/h
21.09.2013 03:00 14,4 C 75 % 1019,0 hPa 0,0 l/m 6,5 km/h N 9,9 C 14,2 C 19,3 km/h
21.09.2013 04:00 14,4 C 74 % 1019,1 hPa 0,0 l/m 6,5 km/h N 9,9 C 14,2 C 19,7 km/h
21.09.2013 05:00 14,5 C 74 % 1019,3 hPa 0,0 l/m 10,0 km/h N 9,8 C 12,5 C 24,1 km/h
21.09.2013 06:00 14,4 C 74 % 1019,6 hPa 0,0 l/m 12,1 km/h N 9,8 C 11,5 C 30,2 km/h
21.09.2013 07:00 14,4 C 74 % 1020,2 hPa 0,0 l/m 10,5 km/h N 9,9 C 12,2 C 24,5 km/h
21.09.2013 08:00 14,7 C 74 % 1020,8 hPa 0,0 l/m 9,9 km/h N 10,0 C 12,8 C 21,7 km/h
21.09.2013 09:00 14,8 C 75 % 1021,6 hPa 0,5 l/m 9,2 km/h N 10,4 C 13,2 C 22,9 km/h
21.09.2013 10:00 14,7 C 79 % 1022,3 hPa 0,0 l/m 6,7 km/h N 11,1 C 14,4 C 18,1 km/h
21.09.2013 11:00 15,6 C 75 % 1022,4 hPa 0,0 l/m 10,2 km/h N 11,1 C 13,8 C 25,8 km/h
21.09.2013 12:00 16,2 C 73 % 1022,6 hPa 0,0 l/m 10,8 km/h N 11,3 C 14,1 C 24,9 km/h
21.09.2013 13:00 16,1 C 74 % 1022,9 hPa 0,0 l/m 8,3 km/h N 11,5 C 15,3 C 20,1 km/h
21.09.2013 14:00 15,5 C 77 % 1023,1 hPa 0,8 l/m 8,8 km/h N 11,4 C 14,1 C 21,3 km/h
21.09.2013 15:00 14,9 C 76 % 1023,5 hPa 1,3 l/m 8,0 km/h N 10,7 C 13,8 C 21,3 km/h
21.09.2013 16:00 14,7 C 79 % 1023,6 hPa 0,0 l/m 7,9 km/h N 11,0 C 13,7 C 19,3 km/h
21.09.2013 17:00 15,1 C 74 % 1023,9 hPa 0,0 l/m 9,4 km/h N 10,6 C 13,6 C 21,7 km/h
21.09.2013 18:00 13,9 C 81 % 1024,6 hPa 0,5 l/m 4,7 km/h N 10,6 C 13,9 C 14,9 km/h
21.09.2013 19:00 13,6 C 81 % 1025,1 hPa 0,0 l/m 4,0 km/h N 10,4 C 13,6 C 12,1 km/h
21.09.2013 20:00 13,8 C 81 % 1025,7 hPa 0,0 l/m 5,5 km/h N 10,5 C 13,8 C 15,3 km/h
21.09.2013 21:00 13,5 C 81 % 1026,0 hPa 0,0 l/m 4,2 km/h N 10,3 C 13,5 C 14,9 km/h
21.09.2013 22:00 13,4 C 81 % 1026,2 hPa 0,0 l/m 2,1 km/h N 10,2 C 13,4 C 8,8 km/h
21.09.2013 23:00 13,2 C 80 % 1026,5 hPa 0,0 l/m 4,1 km/h N 9,8 C 13,2 C 11,7 km/h
22.09.2013 00:00 13,2 C 78 % 1026,7 hPa 0,0 l/m 2,8 km/h N 9,4 C 13,2 C 10,1 km/h
22.09.2013 01:00 12,9 C 78 % 1026,9 hPa 0,0 l/m 3,2 km/h N 9,2 C 12,9 C 10,5 km/h
22.09.2013 02:00 12,6 C 79 % 1026,8 hPa 0,0 l/m 2,8 km/h N 9,0 C 12,6 C 9,3 km/h
22.09.2013 03:00 12,1 C 80 % 1026,8 hPa 0,0 l/m 2,0 km/h N 8,7 C 12,1 C 8,9 km/h
22.09.2013 04:00 12,2 C 81 % 1026,8 hPa 0,0 l/m 2,6 km/h N 9,0 C 12,2 C 9,7 km/h
22.09.2013 05:00 12,0 C 82 % 1027,0 hPa 0,0 l/m 1,8 km/h N 9,0 C 12,0 C 7,6 km/h
22.09.2013 06:00 11,6 C 83 % 1027,3 hPa 0,0 l/m 0,6 km/h N 8,7 C 11,6 C 6,0 km/h
22.09.2013 07:00 11,4 C 83 % 1027,4 hPa 0,0 l/m 0,9 km/h N 8,7 C 11,4 C 6,4 km/h
22.09.2013 08:00 12,9 C 82 % 1027,2 hPa 0,0 l/m 3,1 km/h N 9,8 C 12,9 C 10,9 km/h
22.09.2013 09:00 14,5 C 76 % 1027,4 hPa 0,0 l/m 6,8 km/h N 10,4 C 14,2 C 17,7 km/h
22.09.2013 10:00 14,9 C 74 % 1027,7 hPa 0,0 l/m 6,0 km/h N 10,4 C 14,9 C 17,3 km/h
22.09.2013 11:00 16,1 C 70 % 1027,3 hPa 0,0 l/m 5,0 km/h N 10,5 C 16,1 C 14,9 km/h
22.09.2013 12:00 17,0 C 65 % 1026,8 hPa 0,0 l/m 5,4 km/h N 10,2 C 17,0 C 15,3 km/h
22.09.2013 13:00 17,7 C 63 % 1026,2 hPa 0,0 l/m 5,1 km/h N 10,6 C 17,7 C 16,1 km/h
22.09.2013 14:00 18,0 C 61 % 1025,4 hPa 0,0 l/m 5,8 km/h N 10,4 C 17,9 C 14,9 km/h
22.09.2013 15:00 18,3 C 62 % 1025,0 hPa 0,0 l/m 4,9 km/h N 10,8 C 18,3 C 15,3 km/h
22.09.2013 16:00 18,3 C 63 % 1024,5 hPa 0,0 l/m 2,8 km/h N 11,0 C 18,3 C 11,3 km/h
22.09.2013 17:00 18,0 C 61 % 1024,1 hPa 0,0 l/m 3,8 km/h N 10,3 C 18,0 C 14,5 km/h
22.09.2013 18:00 17,2 C 63 % 1023,8 hPa 0,0 l/m 0,6 km/h N 10,1 C 17,2 C 3,6 km/h
22.09.2013 19:00 15,7 C 68 % 1023,6 hPa 0,0 l/m 1,2 km/h N 9,7 C 15,7 C 7,7 km/h
22.09.2013 20:00 15,6 C 67 % 1023,5 hPa 0,0 l/m 3,9 km/h N 9,4 C 15,6 C 12,9 km/h
22.09.2013 21:00 15,6 C 68 % 1023,5 hPa 0,0 l/m 4,8 km/h N 9,7 C 15,6 C 16,1 km/h
22.09.2013 22:00 15,4 C 71 % 1023,9 hPa 0,0 l/m 4,3 km/h N 10,0 C 15,4 C 15,7 km/h
22.09.2013 23:00 15,0 C 72 % 1023,7 hPa 0,0 l/m 4,8 km/h N 9,9 C 15,0 C 15,7 km/h
Min-Datum _ 18.09.13 19.09.13 17.09.13 - 16.09.13 - 18.09.13 17.09.13 16.09.13
_ Min-Zeit 06:30 14:00 03:15 - 00:00 - 06:30 08:00 00:00
Minimum _ 6,4 C 55 % 998,7 hPa - 0,0 km/h - 3,9 C 5,1 C 0,0 km/h
Max-Datum _ 16.09.13 17.09.13 22.09.13 16.09.13 17.09.13 - 16.09.13 16.09.13 17.09.13
_ Max-Zeit 14:00 06:00 10:30 22:15 08:00 - 11:00 12:45 07:30
Maximum _ 20,6 C 84 % 1027,8 hPa 14,0 l/m 19,1 km/h
N
- 14,6 C 20,4 C 53,1 km/h
N
Durchschnitt _ 13,8 C 76 % 1011,7 hPa #68,1 l/m 5,2 km/h N 9,5 C 13,1 C 15,1 km/h